createdAt,value
2022-12-16T00:02:01.619Z,-1.50
2022-12-16T00:04:28.145Z,-1.51
2022-12-16T00:06:54.662Z,-1.49
2022-12-16T00:09:21.380Z,-1.48
2022-12-16T00:11:47.845Z,-1.49
2022-12-16T00:14:14.471Z,-1.45
2022-12-16T00:16:40.989Z,-1.46
2022-12-16T00:19:07.611Z,-1.40
2022-12-16T00:21:34.141Z,-1.39
2022-12-16T00:24:00.699Z,-1.45
2022-12-16T00:26:27.277Z,-1.41
2022-12-16T00:28:53.786Z,-1.53
2022-12-16T00:31:21.429Z,-1.57
2022-12-16T00:33:48.066Z,-1.56
2022-12-16T00:36:14.567Z,-1.56
2022-12-16T00:38:41.103Z,-1.55
2022-12-16T00:41:08.206Z,-1.49
2022-12-16T00:43:35.039Z,-1.49
2022-12-16T00:46:01.786Z,-1.52
2022-12-16T00:48:28.323Z,-1.56
2022-12-16T00:50:55.644Z,-1.60
2022-12-16T00:53:23.298Z,-1.56
2022-12-16T00:55:49.805Z,-1.41
2022-12-16T00:58:17.212Z,-1.32
2022-12-16T01:00:43.832Z,-1.30
2022-12-16T01:03:11.796Z,-1.34
2022-12-16T01:05:39.858Z,-1.42
2022-12-16T01:08:06.353Z,-1.49
2022-12-16T01:10:32.972Z,-1.51
2022-12-16T01:12:59.477Z,-1.53
2022-12-16T01:15:26.018Z,-1.50
2022-12-16T01:17:52.545Z,-1.47
2022-12-16T01:20:19.075Z,-1.40
2022-12-16T01:22:45.641Z,-1.27
2022-12-16T01:25:13.060Z,-1.25
2022-12-16T01:27:40.105Z,-1.36
2022-12-16T01:30:06.902Z,-1.45
2022-12-16T01:32:33.413Z,-1.50
2022-12-16T01:35:00.631Z,-1.50
2022-12-16T01:37:27.111Z,-1.49
2022-12-16T01:39:53.658Z,-1.49
2022-12-16T01:42:21.685Z,-1.48
2022-12-16T01:44:49.428Z,-1.47
2022-12-16T01:47:22.650Z,-1.43
2022-12-16T01:49:54.932Z,-1.40
2022-12-16T01:52:28.169Z,-1.42
2022-12-16T01:55:09.522Z,-1.43
2022-12-16T01:57:48.263Z,-1.37
2022-12-16T02:00:14.913Z,-1.27
2022-12-16T02:02:44.013Z,-1.06
2022-12-16T02:05:23.269Z,-1.20
2022-12-16T02:07:58.523Z,-1.31
2022-12-16T02:10:51.094Z,-1.39
2022-12-16T02:13:36.422Z,-1.47
2022-12-16T02:16:17.155Z,-1.52
2022-12-16T02:18:44.104Z,-1.52
2022-12-16T02:21:15.695Z,-1.51
2022-12-16T02:24:00.264Z,-1.45
2022-12-16T02:26:29.583Z,-1.42
2022-12-16T02:28:59.045Z,-1.43
2022-12-16T02:31:45.666Z,-1.34
2022-12-16T02:34:18.796Z,-1.29
2022-12-16T02:36:51.167Z,-1.25
2022-12-16T02:39:23.153Z,-1.21
2022-12-16T02:41:49.622Z,-1.35
2022-12-16T02:44:17.188Z,-1.38
2022-12-16T02:46:51.255Z,-1.38
2022-12-16T02:49:18.744Z,-1.34
2022-12-16T02:51:45.706Z,-1.34
2022-12-16T02:54:13.094Z,-1.34
2022-12-16T02:56:58.540Z,-1.32
2022-12-16T02:59:34.825Z,-1.26
2022-12-16T03:02:05.380Z,-1.29
2022-12-16T03:04:38.789Z,-1.24
2022-12-16T03:07:08.241Z,-1.17
2022-12-16T03:09:36.825Z,-1.16
2022-12-16T03:12:06.516Z,-1.14
2022-12-16T03:14:34.454Z,-1.21
2022-12-16T03:17:01.893Z,-1.16
2022-12-16T03:19:29.323Z,-1.11
2022-12-16T03:22:00.276Z,-1.11
2022-12-16T03:24:27.220Z,-1.13
2022-12-16T03:27:13.761Z,-1.12
2022-12-16T03:29:40.241Z,-1.16
2022-12-16T03:32:12.963Z,-1.23
2022-12-16T03:34:42.605Z,-1.25
2022-12-16T03:37:11.720Z,-1.24
2022-12-16T03:39:47.081Z,-1.28
2022-12-16T03:42:15.625Z,-1.34
2022-12-16T03:44:46.237Z,-1.36
2022-12-16T03:47:16.988Z,-1.38
2022-12-16T03:49:46.415Z,-1.37
2022-12-16T03:52:12.941Z,-1.36
2022-12-16T03:54:39.691Z,-1.28
2022-12-16T03:57:10.417Z,-1.24
2022-12-16T03:59:39.898Z,-1.32
2022-12-16T04:02:06.512Z,-1.34
2022-12-16T04:04:33.146Z,-1.24
2022-12-16T04:07:18.004Z,-1.16
2022-12-16T04:09:44.607Z,-1.11
2022-12-16T04:12:29.860Z,-1.21
2022-12-16T04:15:14.838Z,-1.22
2022-12-16T04:18:00.100Z,-1.28
2022-12-16T04:20:48.792Z,-1.40
2022-12-16T04:23:34.214Z,-1.31
2022-12-16T04:26:01.228Z,-1.33
2022-12-16T04:28:27.737Z,-1.29
2022-12-16T04:30:54.296Z,-1.28
2022-12-16T04:33:41.462Z,-1.23
2022-12-16T04:36:26.826Z,-1.25
2022-12-16T04:39:11.972Z,-1.27
2022-12-16T04:41:57.093Z,-1.31
2022-12-16T04:44:42.394Z,-1.31
2022-12-16T04:47:27.622Z,-1.29
2022-12-16T04:50:12.524Z,-1.28
2022-12-16T04:52:57.476Z,-1.22
2022-12-16T04:55:42.433Z,-1.24
2022-12-16T04:58:27.306Z,-1.26
2022-12-16T05:01:12.299Z,-1.27
2022-12-16T05:03:57.318Z,-1.29
2022-12-16T05:06:42.251Z,-1.28
2022-12-16T05:09:27.232Z,-1.25
2022-12-16T05:12:12.471Z,-1.29
2022-12-16T05:14:57.389Z,-1.37
2022-12-16T05:17:42.955Z,-1.36
2022-12-16T05:20:28.058Z,-1.32
2022-12-16T05:23:16.296Z,-1.34
2022-12-16T05:26:01.645Z,-1.36
2022-12-16T05:28:46.733Z,-1.40
2022-12-16T05:31:31.885Z,-1.39
2022-12-16T05:34:17.193Z,-1.34
2022-12-16T05:37:02.259Z,-1.24
2022-12-16T05:39:47.218Z,-1.30
2022-12-16T05:42:32.459Z,-1.41
2022-12-16T05:45:17.422Z,-1.40
2022-12-16T05:48:02.392Z,-1.42
2022-12-16T05:50:47.542Z,-1.37
2022-12-16T05:53:32.955Z,-1.41
2022-12-16T05:56:18.279Z,-1.46
2022-12-16T05:59:03.424Z,-1.46
2022-12-16T06:01:48.740Z,-1.41
2022-12-16T06:04:33.747Z,-1.48
2022-12-16T06:07:19.047Z,-1.42
2022-12-16T06:10:04.278Z,-1.50
2022-12-16T06:12:49.099Z,-1.55
2022-12-16T06:15:34.128Z,-1.66
2022-12-16T06:18:19.212Z,-1.69
2022-12-16T06:21:04.331Z,-1.67
2022-12-16T06:23:49.259Z,-1.68
2022-12-16T06:26:34.283Z,-1.67
2022-12-16T06:29:19.327Z,-1.72
2022-12-16T06:32:04.395Z,-1.82
2022-12-16T06:34:49.241Z,-1.86
2022-12-16T06:37:34.488Z,-1.83
2022-12-16T06:40:19.595Z,-1.83
2022-12-16T06:43:04.518Z,-1.82
2022-12-16T06:45:49.743Z,-1.89
2022-12-16T06:48:34.797Z,-1.89
2022-12-16T06:51:19.947Z,-1.80
2022-12-16T06:54:05.131Z,-1.80
2022-12-16T06:56:49.949Z,-1.81
2022-12-16T06:59:35.035Z,-1.82
2022-12-16T07:02:19.886Z,-1.81
2022-12-16T07:05:05.215Z,-1.76
2022-12-16T07:07:50.051Z,-1.74
2022-12-16T07:10:35.226Z,-1.74
2022-12-16T07:13:20.241Z,-1.69
2022-12-16T07:16:05.724Z,-1.71
2022-12-16T07:18:50.636Z,-1.69
2022-12-16T07:21:35.954Z,-1.65
2022-12-16T07:24:21.309Z,-1.64
2022-12-16T07:27:06.294Z,-1.62
2022-12-16T07:29:51.524Z,-1.60
2022-12-16T07:32:37.549Z,-1.57
2022-12-16T07:35:23.056Z,-1.54
2022-12-16T07:38:08.210Z,-1.52
2022-12-16T07:40:53.084Z,-1.56
2022-12-16T07:43:38.395Z,-1.64
2022-12-16T07:46:23.593Z,-1.69
2022-12-16T07:49:08.690Z,-1.60
2022-12-16T07:51:53.646Z,-1.53
2022-12-16T07:54:40.704Z,-1.47
2022-12-16T07:57:25.912Z,-1.42
2022-12-16T08:00:10.682Z,-1.25
2022-12-16T08:02:55.915Z,-1.24
2022-12-16T08:05:40.878Z,-1.19
2022-12-16T08:08:26.263Z,-1.11
2022-12-16T08:11:11.044Z,-1.09
2022-12-16T08:13:56.433Z,-1.07
2022-12-16T08:16:41.786Z,-0.88
2022-12-16T08:19:26.774Z,-0.93
2022-12-16T08:22:12.016Z,-0.91
2022-12-16T08:24:57.155Z,-0.76
2022-12-16T08:27:42.328Z,-0.83
2022-12-16T08:30:27.664Z,-0.80
2022-12-16T08:33:18.958Z,-0.57
2022-12-16T08:36:04.735Z,-0.62
2022-12-16T08:38:49.955Z,-0.69
2022-12-16T08:41:34.945Z,-0.69
2022-12-16T08:44:19.905Z,-0.67
2022-12-16T08:47:04.741Z,-0.71
2022-12-16T08:49:49.693Z,-0.70
2022-12-16T08:52:34.636Z,-0.71
2022-12-16T08:55:22.466Z,-0.69
2022-12-16T08:58:12.222Z,-0.68
2022-12-16T09:01:00.500Z,-0.60
2022-12-16T09:03:50.447Z,-0.53
2022-12-16T09:06:40.419Z,-0.46
2022-12-16T09:09:25.883Z,-0.38
2022-12-16T09:12:11.241Z,-0.36
2022-12-16T09:14:56.273Z,-0.37
2022-12-16T09:17:41.669Z,-0.30
2022-12-16T09:20:27.153Z,-0.20
2022-12-16T09:23:12.368Z,-0.11
2022-12-16T09:25:57.688Z,-0.01
2022-12-16T09:28:42.747Z,0.06
2022-12-16T09:31:27.668Z,0.26
2022-12-16T09:34:26.570Z,0.41
2022-12-16T09:37:11.460Z,0.40
2022-12-16T09:39:56.567Z,0.26
2022-12-16T09:42:51.012Z,0.37
2022-12-16T09:45:39.215Z,0.36
2022-12-16T09:48:27.084Z,0.43
2022-12-16T09:51:15.042Z,0.37
2022-12-16T09:54:02.158Z,0.43
2022-12-16T09:57:03.089Z,0.51
2022-12-16T09:59:50.751Z,0.60
2022-12-16T10:02:37.003Z,0.77
2022-12-16T10:05:27.642Z,0.78
2022-12-16T10:08:19.172Z,0.77
2022-12-16T10:11:14.948Z,0.75
2022-12-16T10:14:19.458Z,0.76
2022-12-16T10:17:28.914Z,0.75
2022-12-16T10:20:26.371Z,0.83
2022-12-16T10:23:11.524Z,0.94
2022-12-16T10:25:59.534Z,1.06
2022-12-16T10:28:44.701Z,1.07
2022-12-16T10:31:34.892Z,1.05
2022-12-16T10:34:20.076Z,1.11
2022-12-16T10:37:11.039Z,1.02
2022-12-16T10:39:59.973Z,1.12
2022-12-16T10:42:47.291Z,1.07
2022-12-16T10:45:44.073Z,1.04
2022-12-16T10:48:29.655Z,1.09
2022-12-16T10:51:16.711Z,1.09
2022-12-16T10:54:03.343Z,1.02
2022-12-16T10:57:11.500Z,0.95
2022-12-16T10:59:58.053Z,0.92
2022-12-16T11:02:44.293Z,0.88
2022-12-16T11:05:41.520Z,0.88
2022-12-16T11:08:40.998Z,0.94
2022-12-16T11:11:33.130Z,0.88
2022-12-16T11:14:36.948Z,0.83
2022-12-16T11:17:31.311Z,0.89
2022-12-16T11:20:31.739Z,1.01
2022-12-16T11:23:35.369Z,1.05
2022-12-16T11:26:25.353Z,1.17
2022-12-16T11:29:28.192Z,1.17
2022-12-16T11:32:33.708Z,1.25
2022-12-16T11:35:20.829Z,1.29
2022-12-16T11:38:06.342Z,1.42
2022-12-16T11:40:51.930Z,1.36
2022-12-16T11:43:38.249Z,1.46
2022-12-16T11:46:32.450Z,1.59
2022-12-16T11:49:24.777Z,1.45
2022-12-16T11:52:36.037Z,1.46
2022-12-16T11:55:35.957Z,1.45
2022-12-16T11:58:44.466Z,1.44
2022-12-16T12:02:08.271Z,1.42
2022-12-16T12:04:53.997Z,1.60
2022-12-16T12:07:44.568Z,1.60
2022-12-16T12:10:42.690Z,1.58
2022-12-16T12:13:46.348Z,1.51
2022-12-16T12:16:53.957Z,1.54
2022-12-16T12:20:02.144Z,1.60
2022-12-16T12:22:50.368Z,1.55
2022-12-16T12:25:41.753Z,1.55
2022-12-16T12:28:42.182Z,1.48
2022-12-16T12:31:41.843Z,1.47
2022-12-16T12:34:46.248Z,1.67
2022-12-16T12:37:31.084Z,1.74
2022-12-16T12:40:27.251Z,1.68
2022-12-16T12:43:14.200Z,1.82
2022-12-16T12:46:19.808Z,1.81
2022-12-16T12:49:10.884Z,1.80
2022-12-16T12:52:16.248Z,1.83
2022-12-16T12:55:01.148Z,1.74
2022-12-16T12:57:47.465Z,1.70
2022-12-16T13:00:40.634Z,1.74
2022-12-16T13:03:37.337Z,1.68
2022-12-16T13:06:22.934Z,1.61
2022-12-16T13:09:08.160Z,1.43
2022-12-16T13:11:53.751Z,1.30
2022-12-16T13:14:48.983Z,1.29
2022-12-16T13:17:41.269Z,1.22
2022-12-16T13:21:05.136Z,1.21
2022-12-16T13:23:54.247Z,1.16
2022-12-16T13:26:40.781Z,1.17
2022-12-16T13:29:45.519Z,1.20
2022-12-16T13:32:30.610Z,1.12
2022-12-16T13:35:23.541Z,1.16
2022-12-16T13:38:12.667Z,1.15
2022-12-16T13:41:16.706Z,1.13
2022-12-16T13:44:06.644Z,1.08
2022-12-16T13:46:58.730Z,1.07
2022-12-16T13:49:56.371Z,1.09
2022-12-16T13:52:44.581Z,1.09
2022-12-16T13:55:35.061Z,1.01
2022-12-16T13:58:26.696Z,1.02
2022-12-16T14:01:17.769Z,1.06
2022-12-16T14:04:06.993Z,1.09
2022-12-16T14:06:53.834Z,1.04
2022-12-16T14:09:43.462Z,1.21
2022-12-16T14:12:40.789Z,0.94
2022-12-16T14:15:34.794Z,0.95
2022-12-16T14:18:25.462Z,0.99
2022-12-16T14:21:17.147Z,0.88
2022-12-16T14:24:06.986Z,0.88
2022-12-16T14:26:53.642Z,0.77
2022-12-16T14:29:41.805Z,0.82
2022-12-16T14:32:56.393Z,0.73
2022-12-16T14:35:43.329Z,0.80
2022-12-16T14:38:38.739Z,0.83
2022-12-16T14:41:23.638Z,0.72
2022-12-16T14:44:08.823Z,0.71
2022-12-16T14:46:54.012Z,0.69
2022-12-16T14:49:39.103Z,0.63
2022-12-16T14:52:33.979Z,0.62
2022-12-16T14:55:31.013Z,0.63
2022-12-16T14:58:28.993Z,0.59
2022-12-16T15:01:16.401Z,0.57
2022-12-16T15:04:05.778Z,0.56
2022-12-16T15:06:55.973Z,0.57
2022-12-16T15:09:49.072Z,0.62
2022-12-16T15:12:37.347Z,0.64
2022-12-16T15:15:25.170Z,0.64
2022-12-16T15:18:12.234Z,0.63
2022-12-16T15:21:09.950Z,0.60
2022-12-16T15:23:58.261Z,0.56
2022-12-16T15:26:44.650Z,0.53
2022-12-16T15:30:02.269Z,0.56
2022-12-16T15:32:48.074Z,0.55
2022-12-16T15:35:48.560Z,0.56
2022-12-16T15:38:33.616Z,0.59
2022-12-16T15:41:22.552Z,0.53
2022-12-16T15:44:08.079Z,0.44
2022-12-16T15:46:53.492Z,0.44
2022-12-16T15:49:41.550Z,0.43
2022-12-16T15:52:44.837Z,0.45
2022-12-16T15:55:49.727Z,0.48
2022-12-16T15:58:39.219Z,0.50
2022-12-16T16:01:25.677Z,0.48
2022-12-16T16:04:12.808Z,0.47
2022-12-16T16:07:00.463Z,0.42
2022-12-16T16:09:47.920Z,0.42
2022-12-16T16:12:34.249Z,0.47
2022-12-16T16:15:19.548Z,0.47
2022-12-16T16:18:05.925Z,0.40
2022-12-16T16:20:50.840Z,0.38
2022-12-16T16:23:36.175Z,0.35
2022-12-16T16:26:21.446Z,0.31
2022-12-16T16:29:06.426Z,0.29
2022-12-16T16:31:51.378Z,0.28
2022-12-16T16:34:36.400Z,0.30
2022-12-16T16:37:21.190Z,0.34
2022-12-16T16:40:06.362Z,0.33
2022-12-16T16:42:51.240Z,0.33
2022-12-16T16:45:36.338Z,0.33
2022-12-16T16:48:31.609Z,0.29
2022-12-16T16:51:17.664Z,0.29
2022-12-16T16:54:03.089Z,0.29
2022-12-16T16:56:49.919Z,0.30
2022-12-16T16:59:34.939Z,0.29
2022-12-16T17:02:20.109Z,0.30
2022-12-16T17:05:05.387Z,0.33
2022-12-16T17:07:53.782Z,0.38
2022-12-16T17:10:38.931Z,0.33
2022-12-16T17:13:24.297Z,0.29
2022-12-16T17:16:09.297Z,0.28
2022-12-16T17:18:54.585Z,0.30
2022-12-16T17:21:39.392Z,0.31
2022-12-16T17:24:24.618Z,0.28
2022-12-16T17:27:09.580Z,0.28
2022-12-16T17:29:54.524Z,0.27
2022-12-16T17:32:39.441Z,0.21
2022-12-16T17:35:24.343Z,0.24
2022-12-16T17:38:09.803Z,0.29
2022-12-16T17:40:54.695Z,0.31
2022-12-16T17:43:39.703Z,0.28
2022-12-16T17:46:26.251Z,0.22
2022-12-16T17:49:12.214Z,0.20
2022-12-16T17:51:57.377Z,0.21
2022-12-16T17:54:42.570Z,0.20
2022-12-16T17:57:27.470Z,0.18
2022-12-16T18:00:12.606Z,0.16
2022-12-16T18:02:58.061Z,0.14
2022-12-16T18:05:44.825Z,0.13
2022-12-16T18:08:29.928Z,0.12
2022-12-16T18:11:16.381Z,0.09
2022-12-16T18:14:01.879Z,0.09
2022-12-16T18:16:46.912Z,0.10
2022-12-16T18:19:32.935Z,0.08
2022-12-16T18:22:17.770Z,0.03
2022-12-16T18:25:02.827Z,-0.02
2022-12-16T18:28:02.014Z,-0.07
2022-12-16T18:30:46.776Z,-0.13
2022-12-16T18:33:31.882Z,-0.12
2022-12-16T18:36:17.190Z,-0.22
2022-12-16T18:39:02.246Z,-0.23
2022-12-16T18:41:47.160Z,-0.21
2022-12-16T18:44:32.573Z,-0.19
2022-12-16T18:47:17.949Z,-0.13
2022-12-16T18:50:03.320Z,-0.13
2022-12-16T18:52:48.519Z,-0.18
2022-12-16T18:55:33.701Z,-0.19
2022-12-16T18:58:49.263Z,-0.18
2022-12-16T19:01:26.219Z,-0.20
2022-12-16T19:04:11.243Z,-0.19
2022-12-16T19:06:56.770Z,-0.19
2022-12-16T19:09:41.584Z,-0.23
2022-12-16T19:12:40.689Z,-0.25
2022-12-16T19:15:26.248Z,-0.29
2022-12-16T19:18:11.264Z,-0.25
2022-12-16T19:20:56.793Z,-0.21
2022-12-16T19:23:42.056Z,-0.21
2022-12-16T19:26:27.075Z,-0.27
2022-12-16T19:29:12.376Z,-0.29
2022-12-16T19:31:57.466Z,-0.30
2022-12-16T19:34:42.427Z,-0.27
2022-12-16T19:37:27.560Z,-0.29
2022-12-16T19:40:12.504Z,-0.27
2022-12-16T19:42:57.461Z,-0.29
2022-12-16T19:45:42.526Z,-0.34
2022-12-16T19:48:27.453Z,-0.39
2022-12-16T19:51:19.503Z,-0.37
2022-12-16T19:54:05.064Z,-0.33
2022-12-16T19:56:50.171Z,-0.30
2022-12-16T19:59:40.200Z,-0.28
2022-12-16T20:02:25.950Z,-0.31
2022-12-16T20:05:11.162Z,-0.28
2022-12-16T20:07:56.556Z,-0.30
2022-12-16T20:10:42.000Z,-0.35
2022-12-16T20:13:30.059Z,-0.35
2022-12-16T20:16:41.887Z,-0.35
2022-12-16T20:19:27.005Z,-0.36
2022-12-16T20:22:16.318Z,-0.32
2022-12-16T20:25:01.945Z,-0.30
2022-12-16T20:27:47.221Z,-0.29
2022-12-16T20:30:32.454Z,-0.28
2022-12-16T20:33:17.424Z,-0.28
2022-12-16T20:36:02.809Z,-0.28
2022-12-16T20:38:47.765Z,-0.32
2022-12-16T20:41:32.769Z,-0.33
2022-12-16T20:44:17.890Z,-0.29
2022-12-16T20:47:02.907Z,-0.28
2022-12-16T20:49:47.853Z,-0.23
2022-12-16T20:52:33.048Z,-0.21
2022-12-16T20:55:17.986Z,-0.25
2022-12-16T20:58:02.903Z,-0.28
2022-12-16T21:00:48.270Z,-0.30
2022-12-16T21:03:33.367Z,-0.30
2022-12-16T21:06:22.846Z,-0.33
2022-12-16T21:09:07.810Z,-0.32
2022-12-16T21:11:56.210Z,-0.30
2022-12-16T21:14:41.494Z,-0.31
2022-12-16T21:17:26.606Z,-0.39
2022-12-16T21:20:11.709Z,-0.36
2022-12-16T21:22:56.650Z,-0.44
2022-12-16T21:25:41.674Z,-0.44
2022-12-16T21:28:26.605Z,-0.42
2022-12-16T21:31:11.560Z,-0.39
2022-12-16T21:33:56.481Z,-0.38
2022-12-16T21:36:41.656Z,-0.28
2022-12-16T21:39:26.649Z,-0.29
2022-12-16T21:42:11.615Z,-0.34
2022-12-16T21:44:56.848Z,-0.36
2022-12-16T21:47:41.783Z,-0.32
2022-12-16T21:50:27.578Z,-0.39
2022-12-16T21:53:12.791Z,-0.44
2022-12-16T21:55:57.890Z,-0.42
2022-12-16T21:58:42.779Z,-0.40
2022-12-16T22:01:28.125Z,-0.35
2022-12-16T22:04:13.177Z,-0.35
2022-12-16T22:06:58.049Z,-0.39
2022-12-16T22:09:43.121Z,-0.44
2022-12-16T22:12:28.010Z,-0.41
2022-12-16T22:15:13.174Z,-0.41
2022-12-16T22:17:58.950Z,-0.41
2022-12-16T22:20:44.419Z,-0.37
2022-12-16T22:23:29.654Z,-0.38
2022-12-16T22:26:15.664Z,-0.41
2022-12-16T22:29:00.643Z,-0.45
2022-12-16T22:31:45.692Z,-0.43
2022-12-16T22:34:31.010Z,-0.41
2022-12-16T22:37:15.933Z,-0.38
2022-12-16T22:40:01.174Z,-0.38
2022-12-16T22:42:46.102Z,-0.38
2022-12-16T22:45:31.164Z,-0.37
2022-12-16T22:48:16.340Z,-0.41
2022-12-16T22:51:01.328Z,-0.35
2022-12-16T22:53:46.501Z,-0.39
2022-12-16T22:56:31.773Z,-0.40
2022-12-16T22:59:16.813Z,-0.37
2022-12-16T23:02:01.849Z,-0.36
2022-12-16T23:04:46.951Z,-0.39
2022-12-16T23:07:32.219Z,-0.38
2022-12-16T23:10:17.186Z,-0.38
2022-12-16T23:13:02.325Z,-0.43
2022-12-16T23:15:47.438Z,-0.46
2022-12-16T23:18:32.764Z,-0.46
2022-12-16T23:21:17.720Z,-0.47
2022-12-16T23:24:03.009Z,-0.44
2022-12-16T23:26:48.100Z,-0.37
2022-12-16T23:29:33.261Z,-0.37
2022-12-16T23:32:18.212Z,-0.34
2022-12-16T23:35:03.125Z,-0.37
2022-12-16T23:37:48.179Z,-0.43
2022-12-16T23:40:33.103Z,-0.42
2022-12-16T23:43:18.133Z,-0.38
2022-12-16T23:46:03.419Z,-0.36
2022-12-16T23:48:48.484Z,-0.37
2022-12-16T23:51:33.409Z,-0.37
2022-12-16T23:54:18.418Z,-0.40
2022-12-16T23:57:15.518Z,-0.36
